Time;durP1;ratioP1;P1;durP2;ratioP2;P2;SDS_P1;SDS_P2;PMS_P1;PMS_P2;Temp;Humidity;BMP_temperature;BMP_pressure;BME280_temperature;BME280_humidity;BME280_pressure;Samples;Min_cycle;Max_cycle;Signal;HPM_P1;HPM_P2
2023/06/09 00:00:12;;;;;;;5.23;2.93;;;;;;;-143.84;60.63;45073.81;5109611;28;20560;-55
2023/06/09 00:02:40;;;;;;;8.47;2.90;;;;;;;-143.84;60.69;45041.44;5109464;28;20528;-55
2023/06/09 00:05:09;;;;;;;3.90;3.10;;;;;;;-143.84;60.78;45070.00;5108695;28;20517;-55
2023/06/09 00:07:36;;;;;;;3.10;2.73;;;;;;;-143.84;60.92;45060.50;5109466;28;20952;-55
2023/06/09 00:10:04;;;;;;;6.43;3.07;;;;;;;-143.84;61.26;45068.13;5109257;28;20444;-55
2023/06/09 00:12:32;;;;;;;6.20;2.77;;;;;;;-143.84;61.38;45049.06;5109240;28;20440;-55
2023/06/09 00:14:59;;;;;;;7.57;3.40;;;;;;;-143.84;61.09;45070.00;5109190;28;20483;-55
2023/06/09 00:17:27;;;;;;;4.43;3.00;;;;;;;-143.84;61.27;45054.78;5109363;28;20805;-55
2023/06/09 00:19:54;;;;;;;2.63;2.43;;;;;;;-143.84;61.33;45070.00;5109670;28;20539;-55
2023/06/09 00:22:22;;;;;;;3.40;2.83;;;;;;;-143.84;61.36;45071.91;5109344;28;21339;-55
2023/06/09 00:24:50;;;;;;;5.20;2.53;;;;;;;-143.84;61.43;45087.16;5109270;28;20964;-55
2023/06/09 00:27:17;;;;;;;3.20;3.00;;;;;;;-143.84;61.26;45073.81;5109231;28;20441;-55
2023/06/09 00:29:44;;;;;;;4.53;3.27;;;;;;;-143.84;61.38;45090.97;5109100;28;20921;-55
2023/06/09 00:32:12;;;;;;;2.80;2.60;;;;;;;-143.84;61.62;45087.16;5109082;28;20440;-55
2023/06/09 00:34:39;;;;;;;6.40;3.30;;;;;;;-143.84;61.79;45068.13;5109271;28;20522;-55
2023/06/09 00:37:06;;;;;;;2.93;2.73;;;;;;;-143.84;61.68;45098.56;5109423;28;20459;-55
2023/06/09 00:39:35;;;;;;;3.33;2.87;;;;;;;-143.84;61.86;45090.97;5108884;28;20467;-55
2023/06/09 00:42:02;;;;;;;9.13;3.57;;;;;;;-143.84;61.71;45100.47;5108974;28;20448;-55
2023/06/09 00:44:29;;;;;;;5.00;3.37;;;;;;;-143.84;61.35;45073.81;5109233;28;20492;-55
2023/06/09 00:46:56;;;;;;;5.17;3.27;;;;;;;-143.84;60.96;45083.34;5109014;28;20433;-55
2023/06/09 00:49:23;;;;;;;2.80;2.60;;;;;;;-143.84;61.00;45092.88;5109182;28;20440;-55
2023/06/09 00:51:50;;;;;;;4.83;3.30;;;;;;;-143.84;61.04;45073.81;5108649;28;20494;-55
2023/06/09 00:54:18;;;;;;;2.97;2.77;;;;;;;-143.84;60.80;45062.41;5108941;28;20929;-55
2023/06/09 00:56:47;;;;;;;6.10;3.00;;;;;;;-143.84;60.73;45071.91;5109010;28;20444;-55
2023/06/09 00:59:16;;;;;;;4.53;3.00;;;;;;;-143.84;60.58;45071.91;5108801;28;20472;-55
2023/06/09 01:01:44;;;;;;;3.47;3.17;;;;;;;-143.84;60.75;45066.22;5109039;28;20459;-55
2023/06/09 01:04:12;;;;;;;3.40;3.10;;;;;;;-143.84;60.82;45087.16;5108857;28;20439;-55
2023/06/09 01:06:48;;;;;;;5.10;2.90;;;;;;;-143.84;60.92;45068.13;5108786;28;20496;-55
2023/06/09 01:09:21;;;;;;;11.90;2.90;;;;;;;-143.84;60.52;45041.44;5109194;28;20449;-55
2023/06/09 01:11:59;;;;;;;3.63;3.03;;;;;;;-143.84;60.50;45073.81;5108655;28;20517;-55
2023/06/09 01:14:32;;;;;;;3.10;2.90;;;;;;;-143.84;60.20;45077.63;5108798;28;20456;-55
2023/06/09 01:17:07;;;;;;;4.07;2.47;;;;;;;-143.84;59.74;45089.06;5111404;28;20455;-54
2023/06/09 01:19:40;;;;;;;2.33;2.13;;;;;;;-143.84;59.85;45071.91;5112511;28;20991;-55
2023/06/09 01:22:18;;;;;;;6.17;3.60;;;;;;;-143.84;60.07;45085.25;5112427;28;20450;-54
2023/06/09 01:24:51;;;;;;;6.13;3.37;;;;;;;-143.84;59.73;45071.91;5112822;28;20424;-54
2023/06/09 01:27:23;;;;;;;2.97;2.70;;;;;;;-143.84;59.98;45081.44;5112317;28;20439;-55
2023/06/09 01:29:52;;;;;;;4.43;2.80;;;;;;;-143.84;59.95;45075.72;5112332;28;20522;-55
2023/06/09 01:32:21;;;;;;;3.03;2.83;;;;;;;-143.84;60.04;45085.25;5112061;28;20435;-55
2023/06/09 01:34:49;;;;;;;6.60;3.10;;;;;;;-143.84;60.10;45052.88;5112369;28;20501;-54
2023/06/09 01:37:16;;;;;;;3.30;3.00;;;;;;;-143.84;60.09;45079.53;5112488;28;20512;-55
2023/06/09 01:39:45;;;;;;;4.87;3.27;;;;;;;-143.84;59.87;45070.00;5112502;28;20483;-55
2023/06/09 01:42:13;;;;;;;13.03;2.50;;;;;;;-143.84;59.36;45089.06;5112145;28;20448;-55
2023/06/09 01:44:41;;;;;;;2.97;2.67;;;;;;;-143.84;59.36;45089.06;5112046;28;20489;-55
2023/06/09 01:47:09;;;;;;;7.70;3.40;;;;;;;-143.84;59.43;45077.63;5111941;28;20444;-55
2023/06/09 01:49:46;;;;;;;3.13;2.83;;;;;;;-143.84;59.09;45079.53;5112203;28;20508;-55
2023/06/09 01:52:18;;;;;;;8.37;2.93;;;;;;;-143.84;59.49;45066.22;5112071;28;20827;-55
2023/06/09 01:54:54;;;;;;;3.70;2.90;;;;;;;-143.84;59.36;45077.63;5111997;28;20513;-55
2023/06/09 01:57:27;;;;;;;8.20;2.80;;;;;;;-143.84;59.18;45071.91;5111868;28;20797;-55
2023/06/09 02:00:00;;;;;;;3.20;2.90;;;;;;;-143.84;59.33;45043.34;5111608;28;20478;-55
2023/06/09 02:02:29;;;;;;;4.93;3.00;;;;;;;-143.84;59.19;45083.34;5111756;28;20448;-55
2023/06/09 02:04:59;;;;;;;7.83;3.30;;;;;;;-143.84;59.10;45083.34;5111407;28;20444;-54
2023/06/09 02:07:27;;;;;;;8.93;3.20;;;;;;;-143.84;59.01;45071.91;5111617;28;20437;-55
2023/06/09 02:09:56;;;;;;;4.47;3.00;;;;;;;-143.84;58.98;45068.13;5111620;28;20438;-54
2023/06/09 02:12:23;;;;;;;5.43;3.67;;;;;;;-143.84;59.15;45071.91;5111473;28;20501;-55
2023/06/09 02:14:50;;;;;;;2.90;2.70;;;;;;;-143.84;58.95;45071.91;5111559;28;20856;-55
2023/06/09 02:17:20;;;;;;;4.80;2.83;;;;;;;-143.84;58.81;45064.31;5111618;28;20505;-55
2023/06/09 02:19:48;;;;;;;4.13;3.33;;;;;;;-143.84;58.82;45064.31;5111363;28;20519;-54
2023/06/09 02:22:15;;;;;;;6.50;3.03;;;;;;;-143.84;58.89;45098.56;5111302;28;20431;-54
2023/06/09 02:24:42;;;;;;;4.80;3.00;;;;;;;-143.84;59.04;45089.06;5111287;28;20451;-54
2023/06/09 02:27:09;;;;;;;4.37;2.70;;;;;;;-143.84;59.11;45089.06;5110843;28;20432;-54
2023/06/09 02:29:36;;;;;;;4.20;2.83;;;;;;;-143.84;59.26;45052.88;5111048;28;20441;-54
2023/06/09 02:32:04;;;;;;;2.87;2.37;;;;;;;-143.84;59.11;45073.81;5111325;28;20440;-54
2023/06/09 02:34:32;;;;;;;2.67;2.40;;;;;;;-143.84;59.09;45094.78;5110900;28;20502;-54
2023/06/09 02:37:00;;;;;;;5.43;2.60;;;;;;;-143.84;58.79;45066.22;5110967;28;21013;-54
2023/06/09 02:39:27;;;;;;;3.80;2.80;;;;;;;-143.84;58.96;45070.00;5110934;28;20559;-54
2023/06/09 02:41:55;;;;;;;4.50;2.60;;;;;;;-143.84;59.12;45083.34;5111207;28;20990;-54
2023/06/09 02:44:22;;;;;;;12.40;3.47;;;;;;;-143.84;59.24;45085.25;5110818;28;20440;-54
2023/06/09 02:46:50;;;;;;;8.00;2.73;;;;;;;-143.84;59.26;45083.34;5111056;28;20443;-54
2023/06/09 02:49:17;;;;;;;4.23;2.93;;;;;;;-143.84;59.30;45033.84;5110949;28;20526;-55
2023/06/09 02:51:45;;;;;;;3.73;2.70;;;;;;;-143.84;59.46;45071.91;5110702;28;20443;-55
2023/06/09 02:54:13;;;;;;;6.33;3.20;;;;;;;-143.84;59.41;45066.22;5110615;28;20443;-54
2023/06/09 02:56:40;;;;;;;14.93;3.60;;;;;;;-143.84;59.01;45089.06;5110670;28;20440;-54
2023/06/09 02:59:07;;;;;;;4.37;2.57;;;;;;;-143.84;59.21;45079.53;5110573;28;21012;-54
2023/06/09 03:01:36;;;;;;;4.13;2.70;;;;;;;-143.84;58.92;45083.34;5091885;28;20473;-54
2023/06/09 03:04:05;;;;;;;6.03;3.20;;;;;;;-143.84;58.85;45079.53;5090135;28;21344;-54
2023/06/09 03:06:33;;;;;;;3.53;3.33;;;;;;;-143.84;58.72;45066.22;5090394;28;20454;-55
2023/06/09 03:09:03;;;;;;;3.40;3.10;;;;;;;-143.84;58.44;45094.78;5090194;28;20494;-54
2023/06/09 03:11:31;;;;;;;3.33;2.97;;;;;;;-143.84;58.11;45077.63;5090196;28;20448;-54
2023/06/09 03:13:58;;;;;;;5.57;3.47;;;;;;;-143.84;58.18;45066.22;5090129;28;20912;-54
2023/06/09 03:16:25;;;;;;;5.87;2.43;;;;;;;-143.84;58.36;45070.00;5089781;28;20477;-55
2023/06/09 03:18:52;;;;;;;10.37;3.33;;;;;;;-143.84;58.32;45073.81;5089782;28;20497;-56
2023/06/09 03:21:23;;;;;;;10.67;3.60;;;;;;;-143.84;58.27;45079.53;5089711;28;20547;-54
2023/06/09 03:23:50;;;;;;;2.80;2.60;;;;;;;-143.84;58.47;45056.69;5090006;28;20882;-54
2023/06/09 03:26:19;;;;;;;6.23;2.90;;;;;;;-143.84;58.66;45052.88;5089567;28;20491;-54
2023/06/09 03:28:46;;;;;;;3.33;3.03;;;;;;;-143.84;58.69;45045.25;5089727;28;20450;-54
2023/06/09 03:31:14;;;;;;;3.07;2.87;;;;;;;-143.84;58.46;45052.88;5089469;28;20450;-53
2023/06/09 03:33:41;;;;;;;6.37;2.73;;;;;;;-143.84;57.10;45056.69;5089342;28;20450;-54
2023/06/09 03:36:09;;;;;;;3.10;2.90;;;;;;;-143.84;54.93;45031.94;5089368;28;20946;-54
2023/06/09 03:38:36;;;;;;;5.27;2.73;;;;;;;-143.84;52.36;45060.50;5088874;28;20954;-53
2023/06/09 03:41:04;;;;;;;6.87;2.60;;;;;;;-143.84;49.39;45010.97;5089331;28;20509;-54
2023/06/09 03:43:33;;;;;;;9.80;2.87;;;;;;;-143.84;47.94;45058.59;5089426;28;20494;-54
2023/06/09 03:46:00;;;;;;;4.20;2.77;;;;;;;-143.84;47.83;45039.53;5089183;28;20475;-54
2023/06/09 03:48:27;;;;;;;5.23;3.00;;;;;;;-143.84;46.80;45052.88;5089262;28;20440;-54
2023/06/09 03:50:54;;;;;;;4.80;2.83;;;;;;;-143.84;46.95;45049.06;5089278;28;20539;-55
2023/06/09 03:53:22;;;;;;;2.60;2.40;;;;;;;-143.84;46.05;45028.13;5089465;28;20441;-55
2023/06/09 03:55:49;;;;;;;3.83;3.00;;;;;;;-143.84;44.97;45030.03;5115971;27;20444;-55
2023/06/09 03:58:17;;;;;;;4.80;3.20;;;;;;;-143.84;43.99;45024.31;5129461;27;20438;-55
2023/06/09 04:00:47;;;;;;;7.80;3.33;;;;;;;-143.84;43.19;45033.84;5129335;27;20511;-55
2023/06/09 04:03:14;;;;;;;7.80;3.00;;;;;;;-143.84;42.55;45062.41;5129539;27;20942;-55
2023/06/09 04:05:41;;;;;;;5.23;3.17;;;;;;;-143.84;41.93;45030.03;5129451;27;20947;-55
2023/06/09 04:08:08;;;;;;;6.63;3.20;;;;;;;-143.84;41.46;45005.28;5129325;27;20445;-55
2023/06/09 04:10:35;;;;;;;9.03;3.37;;;;;;;-143.84;40.99;45007.19;5129440;27;20481;-55
2023/06/09 04:13:02;;;;;;;6.17;3.40;;;;;;;-143.84;40.63;45007.19;5129879;27;20510;-55
2023/06/09 04:15:29;;;;;;;8.73;3.17;;;;;;;-143.84;39.92;44990.03;5129717;27;20554;-54
2023/06/09 04:17:59;;;;;;;5.70;3.10;;;;;;;-143.84;39.84;44982.41;5129803;27;20451;-54
2023/06/09 04:20:27;;;;;;;6.57;3.70;;;;;;;-143.84;39.80;44995.75;5129753;28;21010;-55
2023/06/09 04:22:55;;;;;;;7.77;3.13;;;;;;;-143.84;39.43;44971.00;5129573;28;20523;-54
2023/06/09 04:25:25;;;;;;;8.47;2.50;;;;;;;-143.84;38.75;44984.31;5129825;28;20473;-54
2023/06/09 04:27:53;;;;;;;6.03;2.67;;;;;;;-143.84;38.86;44969.09;5129783;28;20528;-54
2023/06/09 04:30:25;;;;;;;4.37;2.40;;;;;;;-143.84;38.56;44991.94;5129873;28;20944;-54
2023/06/09 04:32:52;;;;;;;10.17;2.50;;;;;;;-143.84;38.79;45009.09;5129763;28;20461;-55
2023/06/09 04:35:21;;;;;;;12.90;2.53;;;;;;;-143.84;38.35;44959.56;5128735;28;20439;-55
2023/06/09 04:37:50;;;;;;;14.03;2.80;;;;;;;-143.84;38.25;44988.13;5129643;28;20442;-55
2023/06/09 04:40:23;;;;;;;4.87;2.43;;;;;;;-143.84;37.89;44961.47;5129430;28;20481;-54
2023/06/09 04:42:52;;;;;;;10.10;2.70;;;;;;;-143.84;38.00;44972.91;5129571;28;20503;-54
2023/06/09 04:45:20;;;;;;;4.40;2.10;;;;;;;-143.84;37.26;44967.19;5129595;28;20444;-54
2023/06/09 04:47:50;;;;;;;6.70;2.90;;;;;;;-143.84;37.59;44959.56;5129688;28;20872;-54
2023/06/09 04:50:17;;;;;;;6.17;2.70;;;;;;;-143.84;37.14;44946.25;5121391;28;20436;-54
2023/06/09 04:52:47;;;;;;;7.70;2.63;;;;;;;-143.84;36.58;44951.97;5113295;28;20446;-54
2023/06/09 04:55:14;;;;;;;6.40;2.70;;;;;;;-143.84;36.61;44953.88;5112887;28;20444;-54
2023/06/09 04:57:43;;;;;;;2.50;2.30;;;;;;;-143.84;36.06;44950.06;5112897;28;20442;-54
2023/06/09 05:00:14;;;;;;;5.53;2.43;;;;;;;-143.84;36.06;44957.66;5112839;28;20485;-54
2023/06/09 05:02:41;;;;;;;4.83;2.20;;;;;;;-143.84;36.43;44932.91;5113116;28;20450;-53
2023/06/09 05:05:09;;;;;;;4.23;2.53;;;;;;;-143.84;36.38;44953.88;5113163;28;20441;-54
2023/06/09 05:07:38;;;;;;;10.37;2.60;;;;;;;-143.84;36.46;44929.09;5113410;28;20441;-54
2023/06/09 05:10:08;;;;;;;4.07;2.10;;;;;;;-143.84;35.67;44927.19;5112354;28;20439;-54
2023/06/09 05:12:35;;;;;;;3.87;2.10;;;;;;;-143.84;35.64;44946.25;5112248;28;20966;-53
2023/06/09 05:15:03;;;;;;;5.30;2.50;;;;;;;-143.84;35.59;44931.00;5112004;28;20838;-54
2023/06/09 05:17:30;;;;;;;2.93;2.57;;;;;;;-143.84;35.36;44931.00;5113008;28;20939;-54
2023/06/09 05:19:57;;;;;;;7.23;2.40;;;;;;;-143.84;34.99;44931.00;5112666;28;20449;-54
2023/06/09 05:22:24;;;;;;;5.97;2.50;;;;;;;-143.84;35.45;44929.09;5112850;28;20431;-54
2023/06/09 05:24:51;;;;;;;4.73;2.60;;;;;;;-143.84;34.82;44911.97;5112339;28;20541;-54
2023/06/09 05:27:20;;;;;;;6.03;2.80;;;;;;;-143.84;34.06;44900.53;5112203;28;20495;-54
2023/06/09 05:29:47;;;;;;;3.53;2.93;;;;;;;-143.84;34.37;44906.25;5112322;28;20503;-54
2023/06/09 05:32:14;;;;;;;4.93;2.93;;;;;;;-143.84;33.93;44904.34;5112276;28;20886;-54
2023/06/09 05:34:41;;;;;;;6.63;2.67;;;;;;;-143.84;33.71;44908.16;5112562;28;20855;-54
2023/06/09 05:37:09;;;;;;;5.20;2.53;;;;;;;-143.84;34.17;44915.78;5112332;28;20777;-55
2023/06/09 05:39:36;;;;;;;2.53;2.33;;;;;;;-143.84;33.95;44891.03;5112114;28;20446;-54
2023/06/09 05:42:03;;;;;;;5.73;2.70;;;;;;;-143.84;33.40;44891.03;5111870;28;20481;-54
2023/06/09 05:44:32;;;;;;;6.93;2.93;;;;;;;-143.84;32.52;44873.88;5112055;28;20496;-54
2023/06/09 05:46:59;;;;;;;14.37;2.50;;;;;;;-143.84;32.31;44902.44;5111944;28;20447;-54
2023/06/09 05:49:26;;;;;;;4.27;2.60;;;;;;;-143.84;33.02;44913.88;5112186;28;20443;-54
2023/06/09 05:51:53;;;;;;;2.33;2.10;;;;;;;-143.84;31.68;44940.53;5112242;28;20496;-55
2023/06/09 05:54:20;;;;;;;2.57;2.20;;;;;;;-143.84;32.65;44925.31;5112197;28;20988;-55
2023/06/09 05:56:48;;;;;;;3.77;2.10;;;;;;;-143.84;31.26;44904.34;5112253;28;20513;-55
2023/06/09 05:59:20;;;;;;;5.13;2.60;;;;;;;-143.84;31.36;44892.94;5111979;28;20435;-55
2023/06/09 06:01:49;;;;;;;7.30;2.50;;;;;;;-143.84;31.30;44902.44;5111193;28;20479;-55
2023/06/09 06:04:16;;;;;;;4.00;2.50;;;;;;;-143.84;31.61;44894.84;5112203;28;20436;-55
2023/06/09 06:06:43;;;;;;;2.33;1.80;;;;;;;-143.84;31.80;44889.13;5112114;28;20439;-55
2023/06/09 06:09:11;;;;;;;2.63;1.53;;;;;;;-143.84;31.21;44889.13;5111961;28;20440;-55
2023/06/09 06:11:38;;;;;;;6.10;2.53;;;;;;;-143.84;31.35;44896.75;5111703;28;20446;-55
2023/06/09 06:14:05;;;;;;;11.67;2.63;;;;;;;-143.84;32.12;44875.78;5112039;28;20508;-55
2023/06/09 06:16:32;;;;;;;2.90;1.97;;;;;;;-143.84;31.50;44879.59;5111700;28;20471;-55
2023/06/09 06:19:01;;;;;;;2.73;2.53;;;;;;;-143.84;31.55;44902.44;5111837;28;20443;-55
2023/06/09 06:21:28;;;;;;;3.87;1.80;;;;;;;-143.84;30.74;44864.38;5111263;28;20479;-55
2023/06/09 06:23:56;;;;;;;6.80;2.10;;;;;;;-143.84;32.03;44881.50;5111778;28;20485;-55
2023/06/09 06:26:23;;;;;;;9.17;2.30;;;;;;;-143.84;31.44;44856.75;5111464;28;20542;-55
2023/06/09 06:28:50;;;;;;;8.07;2.10;;;;;;;-143.84;31.83;44881.50;5111431;28;20462;-55
2023/06/09 06:31:17;;;;;;;18.23;3.70;;;;;;;-143.84;33.14;44889.13;5111600;28;20520;-55
2023/06/09 06:33:45;;;;;;;13.63;3.30;;;;;;;-143.84;33.34;44875.78;5111432;28;20445;-55
2023/06/09 06:36:14;;;;;;;7.03;2.23;;;;;;;-143.84;32.17;44870.09;5111365;28;20432;-55
2023/06/09 06:38:41;;;;;;;2.33;2.03;;;;;;;-143.84;31.93;44898.66;5111424;28;20512;-55
2023/06/09 06:41:08;;;;;;;7.73;3.50;;;;;;;-143.84;34.11;44917.69;5111441;28;20564;-55
2023/06/09 06:43:35;;;;;;;7.97;2.93;;;;;;;-143.84;34.62;44898.66;5111227;28;20501;-55
2023/06/09 06:46:02;;;;;;;8.63;3.97;;;;;;;-143.84;35.41;44891.03;5111239;28;20436;-55
2023/06/09 06:48:29;;;;;;;4.57;2.97;;;;;;;-143.84;34.88;44891.03;5111075;28;20489;-55
2023/06/09 06:50:56;;;;;;;6.20;3.10;;;;;;;-143.84;34.87;44921.50;5111199;28;20530;-55
2023/06/09 06:53:26;;;;;;;8.80;3.23;;;;;;;-143.84;34.78;44908.16;5111034;28;20439;-55
2023/06/09 06:55:53;;;;;;;5.13;4.43;;;;;;;-143.84;35.13;44919.59;5110860;28;20447;-55
2023/06/09 06:58:21;;;;;;;17.23;10.70;;;;;;;-143.84;35.19;44891.03;5111316;28;20434;-55
2023/06/09 07:00:48;;;;;;;8.30;4.50;;;;;;;-143.84;36.27;44934.81;5111233;28;20848;-55
2023/06/09 07:03:16;;;;;;;5.53;3.67;;;;;;;-143.84;35.37;44896.75;5110839;28;20884;-55
2023/06/09 07:05:43;;;;;;;4.43;2.80;;;;;;;-143.84;33.78;44913.88;5110962;28;20939;-55
2023/06/09 07:08:10;;;;;;;3.83;2.00;;;;;;;-143.84;32.83;44885.31;5111003;28;20475;-55
2023/06/09 07:10:39;;;;;;;2.83;2.43;;;;;;;-143.84;32.12;44885.31;5110465;28;20435;-55
2023/06/09 07:13:07;;;;;;;4.77;1.80;;;;;;;-143.84;31.64;44881.50;5110544;28;20542;-55
2023/06/09 07:15:36;;;;;;;4.20;2.00;;;;;;;-143.84;32.79;44913.88;5110612;28;20483;-55
2023/06/09 07:18:05;;;;;;;6.67;2.23;;;;;;;-143.84;32.11;44856.75;5110765;28;20447;-55
2023/06/09 07:20:32;;;;;;;3.10;2.20;;;;;;;-143.84;32.26;44889.13;5110639;28;20448;-55
2023/06/09 07:22:59;;;;;;;7.80;2.10;;;;;;;-143.84;31.42;44856.75;5110787;28;20459;-55
2023/06/09 07:25:26;;;;;;;4.73;1.87;;;;;;;-143.84;32.11;44877.69;5110419;28;20435;-55
2023/06/09 07:27:55;;;;;;;3.23;2.47;;;;;;;-143.84;33.60;44883.41;5110609;28;20436;-55
2023/06/09 07:30:22;;;;;;;4.20;1.67;;;;;;;-143.84;31.73;44873.88;5110508;28;20965;-55
2023/06/09 07:32:49;;;;;;;3.07;1.90;;;;;;;-143.84;31.49;44896.75;5110823;28;20428;-55
2023/06/09 07:35:19;;;;;;;2.00;1.73;;;;;;;-143.84;32.17;44875.78;5110743;28;20440;-55
2023/06/09 07:37:48;;;;;;;4.10;1.97;;;;;;;-143.84;31.99;44915.78;5110290;28;20446;-55
2023/06/09 07:40:15;;;;;;;8.30;2.00;;;;;;;-143.84;31.78;44883.41;5110499;28;20439;-55
2023/06/09 07:42:42;;;;;;;1.90;1.80;;;;;;;-143.84;30.75;44906.25;5110651;28;20487;-55
2023/06/09 07:45:11;;;;;;;5.43;2.13;;;;;;;-143.84;31.51;44900.53;5110162;28;20436;-55
2023/06/09 07:47:39;;;;;;;4.57;1.90;;;;;;;-143.84;31.17;44870.09;5110358;28;20516;-55
2023/06/09 07:50:07;;;;;;;3.83;3.07;;;;;;;-143.84;35.32;44877.69;5110316;28;20480;-55
2023/06/09 07:52:36;;;;;;;9.67;4.23;;;;;;;-143.84;36.40;44892.94;5110090;28;20459;-55
2023/06/09 07:55:04;;;;;;;4.00;3.70;;;;;;;-143.84;36.96;44921.50;5110050;28;20448;-55
2023/06/09 07:57:31;;;;;;;8.80;4.17;;;;;;;-143.84;37.48;44904.34;5110080;28;20458;-55
2023/06/09 07:59:58;;;;;;;5.00;3.40;;;;;;;-143.84;37.72;44896.75;5110073;28;20496;-55
2023/06/09 08:02:28;;;;;;;4.43;3.10;;;;;;;-143.84;39.04;44946.25;5110243;28;20475;-55
2023/06/09 08:04:55;;;;;;;7.53;3.43;;;;;;;-143.84;39.22;44919.59;5110229;28;20486;-55
2023/06/09 08:07:22;;;;;;;8.73;3.20;;;;;;;-143.84;39.88;44951.97;5109842;28;20437;-55
2023/06/09 08:09:49;;;;;;;5.23;2.87;;;;;;;-143.84;38.67;44927.19;5109844;28;20949;-55
2023/06/09 08:12:16;;;;;;;4.73;2.70;;;;;;;-143.84;39.09;44919.59;5110118;28;20453;-55
2023/06/09 08:14:43;;;;;;;5.03;3.07;;;;;;;-143.84;38.22;44929.09;5109728;28;20542;-55
2023/06/09 08:17:10;;;;;;;5.87;2.70;;;;;;;-143.84;37.81;44908.16;5109964;28;20929;-55
2023/06/09 08:19:39;;;;;;;3.30;2.50;;;;;;;-143.84;38.97;44932.91;5109827;28;20451;-55
2023/06/09 08:22:06;;;;;;;4.90;2.53;;;;;;;-143.84;37.70;44950.06;5110089;28;20573;-55
2023/06/09 08:24:33;;;;;;;4.33;2.57;;;;;;;-143.84;38.17;44919.59;5109413;28;21002;-55
2023/06/09 08:27:00;;;;;;;4.43;2.33;;;;;;;-143.84;37.90;44953.88;5109829;28;20850;-55
2023/06/09 08:29:28;;;;;;;13.07;3.30;;;;;;;-143.84;38.53;44961.47;5110059;28;20457;-55
2023/06/09 08:31:55;;;;;;;5.00;2.93;;;;;;;-143.84;37.93;44967.19;5109551;28;20435;-55
2023/06/09 08:34:22;;;;;;;7.13;3.00;;;;;;;-143.84;41.41;44961.47;5109599;28;20435;-55
2023/06/09 08:36:50;;;;;;;3.30;2.87;;;;;;;-143.84;41.88;44980.53;5109520;28;21078;-55
2023/06/09 08:39:17;;;;;;;4.50;3.37;;;;;;;-143.84;40.83;44965.28;5109777;28;20929;-55
2023/06/09 08:41:51;;;;;;;4.33;2.90;;;;;;;-143.84;41.25;44969.09;5109052;28;20985;-55
2023/06/09 08:44:20;;;;;;;4.53;3.10;;;;;;;-143.84;42.48;44946.25;5109277;28;20523;-55
2023/06/09 08:46:50;;;;;;;3.00;2.10;;;;;;;-143.84;40.42;44969.09;5109179;28;20439;-55
2023/06/09 08:49:17;;;;;;;4.70;3.47;;;;;;;-143.84;40.15;44938.63;5109466;28;20564;-55
2023/06/09 08:51:46;;;;;;;5.30;2.83;;;;;;;-143.84;39.96;44936.72;5109419;28;20530;-55
2023/06/09 08:54:17;;;;;;;2.80;2.60;;;;;;;-143.84;39.93;44972.91;5109721;28;20453;-55
2023/06/09 08:56:46;;;;;;;3.13;2.83;;;;;;;-143.84;39.52;44957.66;5109570;28;21319;-55
2023/06/09 08:59:14;;;;;;;4.47;2.20;;;;;;;-143.84;39.26;44961.47;5109599;28;20938;-55
2023/06/09 09:01:42;;;;;;;5.00;2.63;;;;;;;-143.84;40.25;44938.63;5109460;28;20579;-55
2023/06/09 09:04:09;;;;;;;3.63;2.50;;;;;;;-143.84;38.92;44963.38;5109582;28;20996;-55
2023/06/09 09:06:37;;;;;;;4.93;2.37;;;;;;;-143.84;37.81;44946.25;5109248;28;20919;-55
2023/06/09 09:09:04;;;;;;;2.10;1.90;;;;;;;-143.84;37.50;44953.88;5109577;28;20442;-55
2023/06/09 09:11:33;;;;;;;2.40;2.20;;;;;;;-143.84;37.55;44940.53;5109636;28;20432;-55
2023/06/09 09:14:09;;;;;;;2.90;2.07;;;;;;;-143.84;35.88;44965.28;5109961;28;20510;-55
2023/06/09 09:16:36;;;;;;;2.13;1.90;;;;;;;-143.84;36.81;44951.97;5109365;28;20937;-55
2023/06/09 09:19:04;;;;;;;2.40;2.20;;;;;;;-143.84;38.20;44961.47;5109437;28;20508;-55
2023/06/09 09:21:31;;;;;;;3.87;2.47;;;;;;;-143.84;36.27;44957.66;5109295;28;20471;-55
2023/06/09 09:24:01;;;;;;;6.17;1.93;;;;;;;-143.84;36.28;44946.25;5109185;28;20443;-55
2023/06/09 09:26:29;;;;;;;4.00;2.07;;;;;;;-143.84;35.90;44961.47;5108953;28;20438;-55
2023/06/09 09:29:01;;;;;;;7.87;2.67;;;;;;;-143.84;37.01;44946.25;5108896;28;20434;-55
2023/06/09 09:31:33;;;;;;;6.50;3.03;;;;;;;-143.84;37.48;44940.53;5108856;28;20453;-55
2023/06/09 09:34:01;;;;;;;6.50;2.90;;;;;;;-143.84;34.91;44931.00;5109126;28;20434;-55
2023/06/09 09:36:28;;;;;;;3.40;1.83;;;;;;;-143.84;34.59;44940.53;5109582;28;20468;-55
2023/06/09 09:39:05;;;;;;;2.80;2.10;;;;;;;-143.84;34.62;44971.00;5112761;28;20455;-55
2023/06/09 09:41:32;;;;;;;6.97;2.60;;;;;;;-143.84;36.84;44925.31;5112736;28;20500;-55
2023/06/09 09:44:00;;;;;;;3.73;2.37;;;;;;;-143.84;36.96;44938.63;5112852;28;20444;-55
2023/06/09 09:46:28;;;;;;;3.13;2.30;;;;;;;-143.84;35.41;44927.19;5112710;28;21012;-55
2023/06/09 09:48:55;;;;;;;3.77;2.23;;;;;;;-143.84;35.73;44931.00;5112768;28;20444;-55
2023/06/09 09:51:22;;;;;;;4.93;2.60;;;;;;;-143.84;35.88;44931.00;5112764;28;20428;-55
2023/06/09 09:53:51;;;;;;;4.83;2.40;;;;;;;-143.84;35.84;44946.25;5112841;28;20443;-55
2023/06/09 09:56:25;;;;;;;2.67;2.43;;;;;;;-143.84;36.19;44946.25;5112330;28;20538;-55
2023/06/09 09:58:54;;;;;;;13.17;2.37;;;;;;;-143.84;36.20;44932.91;5112396;28;20929;-55
2023/06/09 10:01:25;;;;;;;9.50;2.13;;;;;;;-143.84;36.49;44944.34;5112418;28;20443;-55
2023/06/09 10:03:54;;;;;;;3.60;2.20;;;;;;;-143.84;37.07;44963.38;5112382;28;20437;-55
2023/06/09 10:06:27;;;;;;;2.67;2.23;;;;;;;-143.84;35.76;44965.28;5112260;28;20435;-55
2023/06/09 10:08:55;;;;;;;6.20;1.70;;;;;;;-143.84;35.34;44957.66;5112057;28;20463;-55
2023/06/09 10:11:23;;;;;;;2.63;1.93;;;;;;;-143.84;35.48;44963.38;5111444;28;20501;-55
2023/06/09 10:13:51;;;;;;;4.03;1.80;;;;;;;-143.84;35.88;44953.88;5112092;28;20443;-54
2023/06/09 10:16:22;;;;;;;8.80;2.10;;;;;;;-143.84;35.96;44967.19;5112081;28;20536;-55
2023/06/09 10:18:51;;;;;;;3.97;2.40;;;;;;;-143.84;36.48;44948.16;5112084;28;20451;-55
2023/06/09 10:21:21;;;;;;;2.00;1.80;;;;;;;-143.84;36.21;44967.19;5112132;28;20446;-55
2023/06/09 10:23:48;;;;;;;3.23;2.30;;;;;;;-143.84;35.62;44963.38;5111929;28;20493;-55
2023/06/09 10:26:16;;;;;;;6.20;2.90;;;;;;;-143.84;36.23;44957.66;5112243;28;20448;-55
2023/06/09 10:28:43;;;;;;;5.03;2.60;;;;;;;-143.84;36.29;44963.38;5112096;28;20998;-55
2023/06/09 10:31:12;;;;;;;3.40;2.17;;;;;;;-143.84;36.58;44972.91;5111822;28;20440;-55
2023/06/09 10:33:43;;;;;;;2.40;2.20;;;;;;;-143.84;36.43;44951.97;5111992;28;20436;-55
2023/06/09 10:36:12;;;;;;;5.40;2.63;;;;;;;-143.84;36.48;44955.75;5112034;28;20780;-55
2023/06/09 10:38:43;;;;;;;2.90;2.27;;;;;;;-143.84;37.61;44951.97;5111736;28;20444;-54
2023/06/09 10:41:16;;;;;;;1.60;1.50;;;;;;;-143.84;36.41;44969.09;5112007;28;20526;-54
2023/06/09 10:44:11;;;;;;;2.13;1.80;;;;;;;-143.84;37.04;44936.72;5111608;28;20862;-54
2023/06/09 10:46:43;;;;;;;4.57;2.63;;;;;;;-143.84;37.92;44955.75;5111047;28;20496;-54
2023/06/09 10:49:39;;;;;;;3.83;2.17;;;;;;;-143.84;38.41;44984.31;5110853;28;20440;-55
2023/06/09 10:52:10;;;;;;;4.70;1.97;;;;;;;-143.84;36.64;44963.38;5111294;28;20508;-55
2023/06/09 10:54:37;;;;;;;2.17;1.97;;;;;;;-143.84;36.98;44951.97;5111397;28;20447;-55
2023/06/09 10:57:06;;;;;;;5.20;2.40;;;;;;;-143.84;37.47;44953.88;5111283;28;20440;-55
2023/06/09 11:00:09;;;;;;;8.37;2.33;;;;;;;-143.84;38.18;44951.97;5111241;28;20458;-54
2023/06/09 11:02:36;;;;;;;4.07;2.30;;;;;;;-143.84;38.32;44953.88;5111152;28;20510;-54
2023/06/09 11:05:04;;;;;;;3.67;1.90;;;;;;;-143.84;38.55;44953.88;5111063;28;20431;-55
2023/06/09 11:07:41;;;;;;;2.50;2.17;;;;;;;-143.84;38.46;44951.97;5111157;28;20444;-55
2023/06/09 11:10:37;;;;;;;2.43;2.10;;;;;;;-143.84;38.40;44961.47;5111068;28;20436;-55
2023/06/09 11:13:39;;;;;;;2.67;2.30;;;;;;;-143.84;39.27;44953.88;5111113;28;20511;-55
2023/06/09 11:16:07;;;;;;;3.83;2.90;;;;;;;-143.84;40.70;44957.66;5110907;28;21081;-54
2023/06/09 11:18:34;;;;;;;4.87;2.90;;;;;;;-143.84;41.58;44988.13;5110999;28;20435;-54
2023/06/09 11:21:25;;;;;;;4.73;2.30;;;;;;;-143.84;42.13;44988.13;5110809;28;20477;-55
2023/06/09 11:24:00;;;;;;;4.93;3.33;;;;;;;-143.84;43.08;44961.47;5110101;28;20486;-54